sensor_id;sensor_type;location;lat;lon;timestamp;P1;durP1;ratioP1;P2;durP2;ratioP2
11008;SDS011;5557;51.670;7.788;2022-10-16T00:01:15;6.80;;;3.90;;
11008;SDS011;5557;51.670;7.788;2022-10-16T00:03:43;8.30;;;3.90;;
11008;SDS011;5557;51.670;7.788;2022-10-16T00:06:11;6.70;;;3.80;;
11008;SDS011;5557;51.670;7.788;2022-10-16T00:08:39;4.00;;;3.70;;
11008;SDS011;5557;51.670;7.788;2022-10-16T00:11:10;8.13;;;4.47;;
11008;SDS011;5557;51.670;7.788;2022-10-16T00:13:40;3.97;;;3.57;;
11008;SDS011;5557;51.670;7.788;2022-10-16T00:16:11;6.63;;;3.83;;
11008;SDS011;5557;51.670;7.788;2022-10-16T00:18:38;4.23;;;3.77;;
11008;SDS011;5557;51.670;7.788;2022-10-16T00:21:10;6.90;;;4.10;;
11008;SDS011;5557;51.670;7.788;2022-10-16T00:23:40;3.43;;;3.20;;
11008;SDS011;5557;51.670;7.788;2022-10-16T00:26:09;3.63;;;3.43;;
11008;SDS011;5557;51.670;7.788;2022-10-16T00:28:39;4.17;;;3.77;;
11008;SDS011;5557;51.670;7.788;2022-10-16T00:31:08;10.90;;;4.50;;
11008;SDS011;5557;51.670;7.788;2022-10-16T00:33:37;8.50;;;5.07;;
11008;SDS011;5557;51.670;7.788;2022-10-16T00:36:06;8.70;;;4.07;;
11008;SDS011;5557;51.670;7.788;2022-10-16T00:38:36;5.00;;;3.97;;
11008;SDS011;5557;51.670;7.788;2022-10-16T00:41:04;3.97;;;3.30;;
11008;SDS011;5557;51.670;7.788;2022-10-16T00:43:52;9.10;;;3.83;;
11008;SDS011;5557;51.670;7.788;2022-10-16T00:46:23;3.57;;;3.37;;
11008;SDS011;5557;51.670;7.788;2022-10-16T00:51:50;7.23;;;3.03;;
11008;SDS011;5557;51.670;7.788;2022-10-16T00:54:21;4.20;;;3.90;;
11008;SDS011;5557;51.670;7.788;2022-10-16T00:56:50;3.30;;;3.10;;
11008;SDS011;5557;51.670;7.788;2022-10-16T00:59:20;3.10;;;2.90;;
11008;SDS011;5557;51.670;7.788;2022-10-16T01:01:54;6.70;;;3.50;;
11008;SDS011;5557;51.670;7.788;2022-10-16T01:04:22;3.70;;;3.47;;
11008;SDS011;5557;51.670;7.788;2022-10-16T01:13:12;3.47;;;3.17;;
11008;SDS011;5557;51.670;7.788;2022-10-16T01:16:04;3.53;;;3.33;;
11008;SDS011;5557;51.670;7.788;2022-10-16T01:18:37;3.60;;;3.13;;
11008;SDS011;5557;51.670;7.788;2022-10-16T01:21:22;7.67;;;3.70;;
11008;SDS011;5557;51.670;7.788;2022-10-16T01:24:03;3.00;;;2.80;;
11008;SDS011;5557;51.670;7.788;2022-10-16T01:27:09;5.30;;;3.17;;
11008;SDS011;5557;51.670;7.788;2022-10-16T01:33:04;3.97;;;3.10;;
11008;SDS011;5557;51.670;7.788;2022-10-16T01:35:36;2.80;;;2.57;;
11008;SDS011;5557;51.670;7.788;2022-10-16T01:38:10;4.93;;;2.97;;
11008;SDS011;5557;51.670;7.788;2022-10-16T01:40:44;27.67;;;4.17;;
11008;SDS011;5557;51.670;7.788;2022-10-16T01:43:20;2.80;;;2.70;;
11008;SDS011;5557;51.670;7.788;2022-10-16T01:45:53;2.70;;;2.40;;
11008;SDS011;5557;51.670;7.788;2022-10-16T01:48:21;3.50;;;2.77;;
11008;SDS011;5557;51.670;7.788;2022-10-16T01:51:03;2.50;;;2.40;;
11008;SDS011;5557;51.670;7.788;2022-10-16T01:53:39;3.17;;;2.90;;
11008;SDS011;5557;51.670;7.788;2022-10-16T01:56:10;5.03;;;3.23;;
11008;SDS011;5557;51.670;7.788;2022-10-16T01:58:47;8.03;;;3.47;;
11008;SDS011;5557;51.670;7.788;2022-10-16T02:01:19;3.67;;;2.70;;
11008;SDS011;5557;51.670;7.788;2022-10-16T02:03:51;6.40;;;3.60;;
11008;SDS011;5557;51.670;7.788;2022-10-16T02:06:21;9.33;;;2.80;;
11008;SDS011;5557;51.670;7.788;2022-10-16T02:08:49;4.03;;;3.30;;
11008;SDS011;5557;51.670;7.788;2022-10-16T02:11:16;3.80;;;2.37;;
11008;SDS011;5557;51.670;7.788;2022-10-16T02:13:45;3.00;;;2.90;;
11008;SDS011;5557;51.670;7.788;2022-10-16T02:16:16;2.80;;;2.70;;
11008;SDS011;5557;51.670;7.788;2022-10-16T02:18:43;2.97;;;2.60;;
11008;SDS011;5557;51.670;7.788;2022-10-16T02:21:19;4.03;;;2.60;;
11008;SDS011;5557;51.670;7.788;2022-10-16T02:24:15;3.07;;;2.87;;
11008;SDS011;5557;51.670;7.788;2022-10-16T02:30:38;4.23;;;2.33;;
11008;SDS011;5557;51.670;7.788;2022-10-16T02:33:09;3.60;;;1.93;;
11008;SDS011;5557;51.670;7.788;2022-10-16T02:35:40;2.10;;;2.00;;
11008;SDS011;5557;51.670;7.788;2022-10-16T02:38:09;3.77;;;2.50;;
11008;SDS011;5557;51.670;7.788;2022-10-16T02:40:37;2.10;;;1.90;;
11008;SDS011;5557;51.670;7.788;2022-10-16T02:43:05;5.40;;;1.80;;
11008;SDS011;5557;51.670;7.788;2022-10-16T02:45:32;2.20;;;2.10;;
11008;SDS011;5557;51.670;7.788;2022-10-16T02:48:00;2.53;;;2.43;;
11008;SDS011;5557;51.670;7.788;2022-10-16T02:50:27;3.13;;;2.23;;
11008;SDS011;5557;51.670;7.788;2022-10-16T02:52:54;6.40;;;2.80;;
11008;SDS011;5557;51.670;7.788;2022-10-16T02:55:21;11.73;;;2.40;;
11008;SDS011;5557;51.670;7.788;2022-10-16T02:57:48;7.00;;;2.20;;
11008;SDS011;5557;51.670;7.788;2022-10-16T03:00:15;2.17;;;2.07;;
11008;SDS011;5557;51.670;7.788;2022-10-16T03:02:43;2.10;;;2.00;;
11008;SDS011;5557;51.670;7.788;2022-10-16T03:05:10;11.40;;;2.03;;
11008;SDS011;5557;51.670;7.788;2022-10-16T03:07:37;2.10;;;2.00;;
11008;SDS011;5557;51.670;7.788;2022-10-16T03:10:06;2.37;;;1.73;;
11008;SDS011;5557;51.670;7.788;2022-10-16T03:12:34;2.57;;;1.67;;
11008;SDS011;5557;51.670;7.788;2022-10-16T03:15:01;2.50;;;1.83;;
11008;SDS011;5557;51.670;7.788;2022-10-16T03:17:28;2.27;;;2.07;;
11008;SDS011;5557;51.670;7.788;2022-10-16T03:19:55;1.87;;;1.57;;
11008;SDS011;5557;51.670;7.788;2022-10-16T03:22:22;1.70;;;1.60;;
11008;SDS011;5557;51.670;7.788;2022-10-16T03:24:49;2.23;;;2.03;;
11008;SDS011;5557;51.670;7.788;2022-10-16T03:27:16;4.10;;;1.60;;
11008;SDS011;5557;51.670;7.788;2022-10-16T03:29:43;2.20;;;1.63;;
11008;SDS011;5557;51.670;7.788;2022-10-16T03:32:10;2.43;;;2.00;;
11008;SDS011;5557;51.670;7.788;2022-10-16T03:34:37;2.20;;;2.00;;
11008;SDS011;5557;51.670;7.788;2022-10-16T03:37:04;1.60;;;1.50;;
11008;SDS011;5557;51.670;7.788;2022-10-16T03:39:31;3.00;;;1.90;;
11008;SDS011;5557;51.670;7.788;2022-10-16T03:41:58;1.80;;;1.70;;
11008;SDS011;5557;51.670;7.788;2022-10-16T03:44:25;3.10;;;1.90;;
11008;SDS011;5557;51.670;7.788;2022-10-16T03:46:52;1.90;;;1.80;;
11008;SDS011;5557;51.670;7.788;2022-10-16T03:49:19;2.30;;;1.70;;
11008;SDS011;5557;51.670;7.788;2022-10-16T03:51:46;4.20;;;1.67;;
11008;SDS011;5557;51.670;7.788;2022-10-16T03:54:13;2.20;;;1.40;;
11008;SDS011;5557;51.670;7.788;2022-10-16T03:56:40;1.90;;;1.80;;
11008;SDS011;5557;51.670;7.788;2022-10-16T03:59:07;3.23;;;1.53;;
11008;SDS011;5557;51.670;7.788;2022-10-16T04:01:33;1.63;;;1.53;;
11008;SDS011;5557;51.670;7.788;2022-10-16T04:04:00;2.40;;;1.50;;
11008;SDS011;5557;51.670;7.788;2022-10-16T04:06:27;1.30;;;1.20;;
11008;SDS011;5557;51.670;7.788;2022-10-16T04:08:54;3.20;;;1.47;;
11008;SDS011;5557;51.670;7.788;2022-10-16T04:11:21;1.37;;;1.23;;
11008;SDS011;5557;51.670;7.788;2022-10-16T04:13:48;1.80;;;1.70;;
11008;SDS011;5557;51.670;7.788;2022-10-16T04:16:15;1.27;;;1.17;;
11008;SDS011;5557;51.670;7.788;2022-10-16T04:18:42;3.97;;;1.40;;
11008;SDS011;5557;51.670;7.788;2022-10-16T04:21:09;3.47;;;1.30;;
11008;SDS011;5557;51.670;7.788;2022-10-16T04:23:36;2.07;;;1.97;;
11008;SDS011;5557;51.670;7.788;2022-10-16T04:26:03;4.03;;;1.57;;
11008;SDS011;5557;51.670;7.788;2022-10-16T04:28:30;7.53;;;2.13;;
11008;SDS011;5557;51.670;7.788;2022-10-16T04:30:57;2.43;;;1.50;;
11008;SDS011;5557;51.670;7.788;2022-10-16T04:33:24;1.33;;;1.10;;
11008;SDS011;5557;51.670;7.788;2022-10-16T04:35:57;1.47;;;1.37;;
11008;SDS011;5557;51.670;7.788;2022-10-16T04:38:25;1.93;;;1.67;;
11008;SDS011;5557;51.670;7.788;2022-10-16T04:40:52;1.60;;;1.50;;
11008;SDS011;5557;51.670;7.788;2022-10-16T04:43:19;2.83;;;2.73;;
11008;SDS011;5557;51.670;7.788;2022-10-16T04:45:47;1.50;;;1.40;;
11008;SDS011;5557;51.670;7.788;2022-10-16T04:48:14;1.83;;;1.33;;
11008;SDS011;5557;51.670;7.788;2022-10-16T04:50:41;1.53;;;1.43;;
11008;SDS011;5557;51.670;7.788;2022-10-16T04:53:08;1.50;;;1.40;;
11008;SDS011;5557;51.670;7.788;2022-10-16T04:55:35;6.20;;;1.50;;
11008;SDS011;5557;51.670;7.788;2022-10-16T04:58:02;1.27;;;1.17;;
11008;SDS011;5557;51.670;7.788;2022-10-16T05:00:29;3.03;;;1.10;;
11008;SDS011;5557;51.670;7.788;2022-10-16T05:02:56;1.47;;;1.37;;
11008;SDS011;5557;51.670;7.788;2022-10-16T05:05:26;1.50;;;1.03;;
11008;SDS011;5557;51.670;7.788;2022-10-16T05:07:53;3.33;;;1.50;;
11008;SDS011;5557;51.670;7.788;2022-10-16T05:10:20;1.40;;;1.30;;
11008;SDS011;5557;51.670;7.788;2022-10-16T05:12:47;2.17;;;1.57;;
11008;SDS011;5557;51.670;7.788;2022-10-16T05:15:14;2.80;;;1.30;;
11008;SDS011;5557;51.670;7.788;2022-10-16T05:17:41;2.40;;;1.27;;
11008;SDS011;5557;51.670;7.788;2022-10-16T05:20:10;1.80;;;1.43;;
11008;SDS011;5557;51.670;7.788;2022-10-16T05:22:37;1.77;;;1.50;;
11008;SDS011;5557;51.670;7.788;2022-10-16T05:25:04;1.40;;;1.30;;
11008;SDS011;5557;51.670;7.788;2022-10-16T05:27:32;1.53;;;1.40;;
11008;SDS011;5557;51.670;7.788;2022-10-16T05:29:59;1.43;;;1.33;;
11008;SDS011;5557;51.670;7.788;2022-10-16T05:32:26;2.00;;;1.40;;
11008;SDS011;5557;51.670;7.788;2022-10-16T05:34:53;1.43;;;1.33;;
11008;SDS011;5557;51.670;7.788;2022-10-16T05:37:20;2.53;;;2.33;;
11008;SDS011;5557;51.670;7.788;2022-10-16T05:39:46;2.03;;;1.30;;
11008;SDS011;5557;51.670;7.788;2022-10-16T05:42:13;4.57;;;1.50;;
11008;SDS011;5557;51.670;7.788;2022-10-16T05:44:41;2.27;;;1.40;;
11008;SDS011;5557;51.670;7.788;2022-10-16T05:47:07;1.40;;;1.30;;
11008;SDS011;5557;51.670;7.788;2022-10-16T05:49:34;1.53;;;1.03;;
11008;SDS011;5557;51.670;7.788;2022-10-16T05:52:06;1.37;;;1.27;;
11008;SDS011;5557;51.670;7.788;2022-10-16T05:54:33;1.40;;;1.30;;
11008;SDS011;5557;51.670;7.788;2022-10-16T05:57:00;1.33;;;1.23;;
11008;SDS011;5557;51.670;7.788;2022-10-16T05:59:28;1.70;;;1.60;;
11008;SDS011;5557;51.670;7.788;2022-10-16T06:01:55;4.93;;;1.90;;
11008;SDS011;5557;51.670;7.788;2022-10-16T06:04:22;1.13;;;1.03;;
11008;SDS011;5557;51.670;7.788;2022-10-16T06:06:49;1.20;;;1.10;;
11008;SDS011;5557;51.670;7.788;2022-10-16T06:09:16;1.60;;;1.43;;
11008;SDS011;5557;51.670;7.788;2022-10-16T06:11:43;6.20;;;1.43;;
11008;SDS011;5557;51.670;7.788;2022-10-16T06:14:10;2.93;;;1.10;;
11008;SDS011;5557;51.670;7.788;2022-10-16T06:16:37;2.67;;;1.10;;
11008;SDS011;5557;51.670;7.788;2022-10-16T06:19:04;1.57;;;1.10;;
11008;SDS011;5557;51.670;7.788;2022-10-16T06:21:37;6.53;;;1.30;;
11008;SDS011;5557;51.670;7.788;2022-10-16T06:24:04;1.67;;;1.20;;
11008;SDS011;5557;51.670;7.788;2022-10-16T06:26:31;1.40;;;1.30;;
11008;SDS011;5557;51.670;7.788;2022-10-16T06:28:58;1.87;;;1.20;;
11008;SDS011;5557;51.670;7.788;2022-10-16T06:31:26;1.80;;;1.00;;
11008;SDS011;5557;51.670;7.788;2022-10-16T06:33:57;4.90;;;1.30;;
11008;SDS011;5557;51.670;7.788;2022-10-16T06:36:24;1.57;;;1.03;;
11008;SDS011;5557;51.670;7.788;2022-10-16T06:38:52;2.50;;;1.10;;
11008;SDS011;5557;51.670;7.788;2022-10-16T06:41:20;0.90;;;0.80;;
11008;SDS011;5557;51.670;7.788;2022-10-16T06:43:48;2.20;;;1.13;;
11008;SDS011;5557;51.670;7.788;2022-10-16T06:46:16;1.40;;;1.00;;
11008;SDS011;5557;51.670;7.788;2022-10-16T06:48:45;1.13;;;1.03;;
11008;SDS011;5557;51.670;7.788;2022-10-16T06:51:13;1.60;;;1.10;;
11008;SDS011;5557;51.670;7.788;2022-10-16T06:53:49;1.23;;;1.13;;
11008;SDS011;5557;51.670;7.788;2022-10-16T06:56:31;1.33;;;1.07;;
11008;SDS011;5557;51.670;7.788;2022-10-16T06:58:59;1.67;;;1.10;;
11008;SDS011;5557;51.670;7.788;2022-10-16T07:01:27;1.57;;;1.20;;
11008;SDS011;5557;51.670;7.788;2022-10-16T07:03:55;0.87;;;0.80;;
11008;SDS011;5557;51.670;7.788;2022-10-16T07:06:23;3.47;;;1.20;;
11008;SDS011;5557;51.670;7.788;2022-10-16T07:08:51;1.10;;;0.80;;
11008;SDS011;5557;51.670;7.788;2022-10-16T07:11:20;6.77;;;1.23;;
11008;SDS011;5557;51.670;7.788;2022-10-16T07:13:51;1.40;;;1.30;;
11008;SDS011;5557;51.670;7.788;2022-10-16T07:16:25;6.30;;;1.20;;
11008;SDS011;5557;51.670;7.788;2022-10-16T07:18:54;1.17;;;1.07;;
11008;SDS011;5557;51.670;7.788;2022-10-16T07:21:27;1.13;;;1.03;;
11008;SDS011;5557;51.670;7.788;2022-10-16T07:23:57;2.40;;;1.10;;
11008;SDS011;5557;51.670;7.788;2022-10-16T07:26:26;12.10;;;1.37;;
11008;SDS011;5557;51.670;7.788;2022-10-16T07:28:54;2.80;;;1.20;;
11008;SDS011;5557;51.670;7.788;2022-10-16T07:31:23;1.00;;;0.80;;
11008;SDS011;5557;51.670;7.788;2022-10-16T07:33:51;4.03;;;1.00;;
11008;SDS011;5557;51.670;7.788;2022-10-16T07:36:18;1.47;;;1.00;;
11008;SDS011;5557;51.670;7.788;2022-10-16T07:38:46;1.13;;;0.80;;
11008;SDS011;5557;51.670;7.788;2022-10-16T07:41:14;4.73;;;1.07;;
11008;SDS011;5557;51.670;7.788;2022-10-16T07:43:46;2.17;;;0.73;;
11008;SDS011;5557;51.670;7.788;2022-10-16T07:46:18;2.70;;;0.87;;
11008;SDS011;5557;51.670;7.788;2022-10-16T07:48:46;1.70;;;0.97;;
11008;SDS011;5557;51.670;7.788;2022-10-16T07:51:15;1.67;;;1.00;;
11008;SDS011;5557;51.670;7.788;2022-10-16T07:53:43;2.80;;;1.67;;
11008;SDS011;5557;51.670;7.788;2022-10-16T07:56:10;1.77;;;0.80;;
11008;SDS011;5557;51.670;7.788;2022-10-16T07:58:38;2.70;;;0.90;;
11008;SDS011;5557;51.670;7.788;2022-10-16T08:01:06;1.20;;;0.70;;
11008;SDS011;5557;51.670;7.788;2022-10-16T08:03:35;0.90;;;0.70;;
11008;SDS011;5557;51.670;7.788;2022-10-16T08:06:02;8.20;;;1.10;;
11008;SDS011;5557;51.670;7.788;2022-10-16T08:08:30;7.17;;;2.33;;
11008;SDS011;5557;51.670;7.788;2022-10-16T08:10:57;2.17;;;0.80;;
11008;SDS011;5557;51.670;7.788;2022-10-16T08:13:24;3.37;;;1.20;;
11008;SDS011;5557;51.670;7.788;2022-10-16T08:15:53;1.17;;;1.07;;
11008;SDS011;5557;51.670;7.788;2022-10-16T08:18:20;0.90;;;0.70;;
11008;SDS011;5557;51.670;7.788;2022-10-16T08:20:54;1.20;;;0.80;;
11008;SDS011;5557;51.670;7.788;2022-10-16T08:23:23;2.70;;;1.63;;
11008;SDS011;5557;51.670;7.788;2022-10-16T08:25:56;7.57;;;0.93;;
11008;SDS011;5557;51.670;7.788;2022-10-16T08:28:28;2.00;;;0.90;;
11008;SDS011;5557;51.670;7.788;2022-10-16T08:30:55;1.73;;;0.60;;
11008;SDS011;5557;51.670;7.788;2022-10-16T08:33:23;1.30;;;0.90;;
11008;SDS011;5557;51.670;7.788;2022-10-16T08:35:51;1.10;;;0.90;;
11008;SDS011;5557;51.670;7.788;2022-10-16T08:38:20;1.57;;;0.97;;
11008;SDS011;5557;51.670;7.788;2022-10-16T08:40:47;0.80;;;0.57;;
11008;SDS011;5557;51.670;7.788;2022-10-16T08:46:46;1.07;;;0.70;;
11008;SDS011;5557;51.670;7.788;2022-10-16T08:49:27;2.30;;;0.80;;
11008;SDS011;5557;51.670;7.788;2022-10-16T08:51:56;4.63;;;0.87;;
11008;SDS011;5557;51.670;7.788;2022-10-16T08:54:30;0.90;;;0.70;;
11008;SDS011;5557;51.670;7.788;2022-10-16T08:57:11;1.37;;;0.60;;
11008;SDS011;5557;51.670;7.788;2022-10-16T08:59:50;1.50;;;0.90;;
11008;SDS011;5557;51.670;7.788;2022-10-16T09:05:01;1.03;;;0.70;;
11008;SDS011;5557;51.670;7.788;2022-10-16T09:07:38;1.47;;;0.70;;
11008;SDS011;5557;51.670;7.788;2022-10-16T09:10:38;1.00;;;0.67;;
11008;SDS011;5557;51.670;7.788;2022-10-16T09:16:32;1.53;;;0.63;;
11008;SDS011;5557;51.670;7.788;2022-10-16T09:19:24;1.47;;;0.70;;
11008;SDS011;5557;51.670;7.788;2022-10-16T09:22:01;0.90;;;0.60;;
11008;SDS011;5557;51.670;7.788;2022-10-16T09:24:41;3.17;;;0.70;;
11008;SDS011;5557;51.670;7.788;2022-10-16T09:27:12;3.67;;;0.67;;
11008;SDS011;5557;51.670;7.788;2022-10-16T09:29:40;1.20;;;0.50;;
11008;SDS011;5557;51.670;7.788;2022-10-16T09:32:11;1.93;;;0.77;;
11008;SDS011;5557;51.670;7.788;2022-10-16T09:34:48;1.50;;;0.60;;
11008;SDS011;5557;51.670;7.788;2022-10-16T09:37:19;1.57;;;0.60;;
11008;SDS011;5557;51.670;7.788;2022-10-16T09:39:50;2.33;;;0.60;;
11008;SDS011;5557;51.670;7.788;2022-10-16T09:42:22;4.27;;;0.70;;
11008;SDS011;5557;51.670;7.788;2022-10-16T09:44:53;1.57;;;0.60;;
11008;SDS011;5557;51.670;7.788;2022-10-16T09:47:21;1.73;;;0.83;;
11008;SDS011;5557;51.670;7.788;2022-10-16T09:49:57;2.00;;;0.70;;
11008;SDS011;5557;51.670;7.788;2022-10-16T09:52:28;2.60;;;0.60;;
11008;SDS011;5557;51.670;7.788;2022-10-16T09:55:12;1.10;;;0.70;;
11008;SDS011;5557;51.670;7.788;2022-10-16T09:57:54;1.20;;;0.87;;
11008;SDS011;5557;51.670;7.788;2022-10-16T10:00:22;0.90;;;0.50;;
11008;SDS011;5557;51.670;7.788;2022-10-16T10:02:50;5.40;;;0.80;;
11008;SDS011;5557;51.670;7.788;2022-10-16T10:05:26;2.60;;;0.50;;
11008;SDS011;5557;51.670;7.788;2022-10-16T10:07:58;1.27;;;0.50;;
11008;SDS011;5557;51.670;7.788;2022-10-16T10:10:33;0.80;;;0.50;;
11008;SDS011;5557;51.670;7.788;2022-10-16T10:13:16;1.17;;;0.50;;
11008;SDS011;5557;51.670;7.788;2022-10-16T10:15:48;3.00;;;0.50;;
11008;SDS011;5557;51.670;7.788;2022-10-16T10:18:18;1.47;;;0.50;;
11008;SDS011;5557;51.670;7.788;2022-10-16T10:21:01;4.03;;;0.87;;
11008;SDS011;5557;51.670;7.788;2022-10-16T10:23:30;6.70;;;0.70;;
11008;SDS011;5557;51.670;7.788;2022-10-16T10:38:16;0.90;;;0.60;;
11008;SDS011;5557;51.670;7.788;2022-10-16T10:40:46;1.93;;;0.70;;
11008;SDS011;5557;51.670;7.788;2022-10-16T10:46:49;5.80;;;0.70;;
11008;SDS011;5557;51.670;7.788;2022-10-16T10:49:32;1.30;;;0.50;;
11008;SDS011;5557;51.670;7.788;2022-10-16T10:52:49;3.90;;;0.80;;
11008;SDS011;5557;51.670;7.788;2022-10-16T10:55:59;1.63;;;0.70;;
11008;SDS011;5557;51.670;7.788;2022-10-16T11:01:56;2.37;;;0.97;;
11008;SDS011;5557;51.670;7.788;2022-10-16T11:04:45;3.53;;;0.80;;
11008;SDS011;5557;51.670;7.788;2022-10-16T11:07:54;1.00;;;0.83;;
11008;SDS011;5557;51.670;7.788;2022-10-16T11:10:46;1.57;;;0.60;;
11008;SDS011;5557;51.670;7.788;2022-10-16T11:16:17;3.17;;;0.50;;
11008;SDS011;5557;51.670;7.788;2022-10-16T11:18:59;1.83;;;1.00;;
11008;SDS011;5557;51.670;7.788;2022-10-16T11:21:44;1.63;;;0.60;;
11008;SDS011;5557;51.670;7.788;2022-10-16T11:25:01;1.87;;;1.00;;
11008;SDS011;5557;51.670;7.788;2022-10-16T11:27:16;3.63;;;0.60;;
11008;SDS011;5557;51.670;7.788;2022-10-16T11:29:58;1.37;;;0.50;;
11008;SDS011;5557;51.670;7.788;2022-10-16T11:32:30;1.27;;;0.50;;
11008;SDS011;5557;51.670;7.788;2022-10-16T11:35:17;2.17;;;0.50;;
11008;SDS011;5557;51.670;7.788;2022-10-16T11:37:48;1.30;;;0.60;;
11008;SDS011;5557;51.670;7.788;2022-10-16T11:40:22;2.80;;;0.70;;
11008;SDS011;5557;51.670;7.788;2022-10-16T11:43:06;2.27;;;0.57;;
11008;SDS011;5557;51.670;7.788;2022-10-16T11:45:45;1.03;;;0.80;;
11008;SDS011;5557;51.670;7.788;2022-10-16T11:56:59;3.10;;;0.70;;
11008;SDS011;5557;51.670;7.788;2022-10-16T11:59:36;3.00;;;0.60;;
11008;SDS011;5557;51.670;7.788;2022-10-16T12:05:13;1.20;;;0.60;;
11008;SDS011;5557;51.670;7.788;2022-10-16T12:08:11;2.00;;;0.60;;
11008;SDS011;5557;51.670;7.788;2022-10-16T12:10:42;0.90;;;0.50;;
11008;SDS011;5557;51.670;7.788;2022-10-16T12:16:20;1.20;;;0.60;;
11008;SDS011;5557;51.670;7.788;2022-10-16T12:18:48;0.90;;;0.60;;
11008;SDS011;5557;51.670;7.788;2022-10-16T12:21:16;1.10;;;0.60;;
11008;SDS011;5557;51.670;7.788;2022-10-16T12:23:52;1.00;;;0.57;;
11008;SDS011;5557;51.670;7.788;2022-10-16T12:26:36;1.00;;;0.57;;
11008;SDS011;5557;51.670;7.788;2022-10-16T12:29:29;1.00;;;0.50;;
11008;SDS011;5557;51.670;7.788;2022-10-16T12:32:00;3.53;;;0.70;;
11008;SDS011;5557;51.670;7.788;2022-10-16T12:34:40;1.00;;;0.77;;
11008;SDS011;5557;51.670;7.788;2022-10-16T12:37:22;1.23;;;0.63;;
11008;SDS011;5557;51.670;7.788;2022-10-16T12:39:52;2.60;;;0.60;;
11008;SDS011;5557;51.670;7.788;2022-10-16T12:42:31;1.77;;;0.50;;
11008;SDS011;5557;51.670;7.788;2022-10-16T12:45:00;1.03;;;0.57;;
11008;SDS011;5557;51.670;7.788;2022-10-16T12:47:38;1.00;;;0.60;;
11008;SDS011;5557;51.670;7.788;2022-10-16T12:53:21;4.77;;;0.87;;
11008;SDS011;5557;51.670;7.788;2022-10-16T12:56:02;4.00;;;1.33;;
11008;SDS011;5557;51.670;7.788;2022-10-16T12:59:34;1.43;;;0.90;;
11008;SDS011;5557;51.670;7.788;2022-10-16T13:08:15;3.93;;;0.80;;
11008;SDS011;5557;51.670;7.788;2022-10-16T13:11:05;3.37;;;1.80;;
11008;SDS011;5557;51.670;7.788;2022-10-16T13:14:06;1.73;;;0.73;;
11008;SDS011;5557;51.670;7.788;2022-10-16T13:18:05;1.50;;;0.50;;
11008;SDS011;5557;51.670;7.788;2022-10-16T13:20:25;2.60;;;0.70;;
11008;SDS011;5557;51.670;7.788;2022-10-16T13:23:16;2.70;;;0.60;;
11008;SDS011;5557;51.670;7.788;2022-10-16T13:27:07;6.13;;;1.03;;
11008;SDS011;5557;51.670;7.788;2022-10-16T13:29:15;1.10;;;0.80;;
11008;SDS011;5557;51.670;7.788;2022-10-16T13:31:43;2.80;;;1.00;;
11008;SDS011;5557;51.670;7.788;2022-10-16T13:34:15;1.10;;;0.80;;
11008;SDS011;5557;51.670;7.788;2022-10-16T13:36:46;1.53;;;0.60;;
11008;SDS011;5557;51.670;7.788;2022-10-16T13:39:25;2.67;;;0.70;;
11008;SDS011;5557;51.670;7.788;2022-10-16T13:42:06;0.90;;;0.50;;
11008;SDS011;5557;51.670;7.788;2022-10-16T13:44:45;6.63;;;0.50;;
11008;SDS011;5557;51.670;7.788;2022-10-16T13:47:21;4.03;;;0.57;;
11008;SDS011;5557;51.670;7.788;2022-10-16T13:50:04;1.37;;;0.60;;
11008;SDS011;5557;51.670;7.788;2022-10-16T13:52:37;0.90;;;0.60;;
11008;SDS011;5557;51.670;7.788;2022-10-16T13:55:10;1.00;;;0.50;;
11008;SDS011;5557;51.670;7.788;2022-10-16T13:57:39;2.90;;;0.70;;
11008;SDS011;5557;51.670;7.788;2022-10-16T14:00:22;3.10;;;0.60;;
11008;SDS011;5557;51.670;7.788;2022-10-16T14:02:55;1.40;;;0.40;;
11008;SDS011;5557;51.670;7.788;2022-10-16T14:05:30;1.60;;;0.40;;
11008;SDS011;5557;51.670;7.788;2022-10-16T14:07:58;0.87;;;0.47;;
11008;SDS011;5557;51.670;7.788;2022-10-16T14:10:27;1.10;;;0.60;;
11008;SDS011;5557;51.670;7.788;2022-10-16T14:12:59;2.10;;;0.60;;
11008;SDS011;5557;51.670;7.788;2022-10-16T14:15:29;2.70;;;0.57;;
11008;SDS011;5557;51.670;7.788;2022-10-16T14:17:57;2.20;;;0.77;;
11008;SDS011;5557;51.670;7.788;2022-10-16T14:20:29;2.90;;;0.60;;
11008;SDS011;5557;51.670;7.788;2022-10-16T14:22:59;7.20;;;0.80;;
11008;SDS011;5557;51.670;7.788;2022-10-16T14:25:50;0.90;;;0.50;;
11008;SDS011;5557;51.670;7.788;2022-10-16T14:28:18;1.43;;;0.50;;
11008;SDS011;5557;51.670;7.788;2022-10-16T14:30:55;2.40;;;0.97;;
11008;SDS011;5557;51.670;7.788;2022-10-16T14:33:33;1.10;;;0.50;;
11008;SDS011;5557;51.670;7.788;2022-10-16T14:39:06;1.00;;;0.50;;
11008;SDS011;5557;51.670;7.788;2022-10-16T14:41:46;1.07;;;0.53;;
11008;SDS011;5557;51.670;7.788;2022-10-16T14:44:14;1.03;;;0.60;;
11008;SDS011;5557;51.670;7.788;2022-10-16T14:46:45;1.27;;;0.70;;
11008;SDS011;5557;51.670;7.788;2022-10-16T14:49:14;3.20;;;0.67;;
11008;SDS011;5557;51.670;7.788;2022-10-16T14:51:45;1.30;;;0.60;;
11008;SDS011;5557;51.670;7.788;2022-10-16T14:54:13;2.33;;;0.47;;
11008;SDS011;5557;51.670;7.788;2022-10-16T14:56:46;3.00;;;0.60;;
11008;SDS011;5557;51.670;7.788;2022-10-16T14:59:17;6.83;;;0.70;;
11008;SDS011;5557;51.670;7.788;2022-10-16T15:01:45;1.30;;;0.80;;
11008;SDS011;5557;51.670;7.788;2022-10-16T15:04:13;9.23;;;0.73;;
11008;SDS011;5557;51.670;7.788;2022-10-16T15:06:41;1.67;;;0.50;;
11008;SDS011;5557;51.670;7.788;2022-10-16T15:09:08;1.10;;;0.50;;
11008;SDS011;5557;51.670;7.788;2022-10-16T15:11:36;1.10;;;0.50;;
11008;SDS011;5557;51.670;7.788;2022-10-16T15:14:03;2.50;;;0.63;;
11008;SDS011;5557;51.670;7.788;2022-10-16T15:16:30;1.40;;;0.73;;
11008;SDS011;5557;51.670;7.788;2022-10-16T15:18:58;3.37;;;0.67;;
11008;SDS011;5557;51.670;7.788;2022-10-16T15:21:26;3.43;;;0.60;;
11008;SDS011;5557;51.670;7.788;2022-10-16T15:23:54;2.40;;;0.50;;
11008;SDS011;5557;51.670;7.788;2022-10-16T15:26:26;4.97;;;0.90;;
11008;SDS011;5557;51.670;7.788;2022-10-16T15:28:56;2.07;;;1.27;;
11008;SDS011;5557;51.670;7.788;2022-10-16T15:31:24;3.00;;;0.80;;
11008;SDS011;5557;51.670;7.788;2022-10-16T15:33:52;3.80;;;0.80;;
11008;SDS011;5557;51.670;7.788;2022-10-16T15:36:26;1.67;;;0.70;;
11008;SDS011;5557;51.670;7.788;2022-10-16T15:38:57;1.63;;;0.90;;
11008;SDS011;5557;51.670;7.788;2022-10-16T15:41:24;4.20;;;0.70;;
11008;SDS011;5557;51.670;7.788;2022-10-16T15:43:51;1.10;;;0.80;;
11008;SDS011;5557;51.670;7.788;2022-10-16T15:46:19;2.80;;;0.80;;
11008;SDS011;5557;51.670;7.788;2022-10-16T15:48:48;10.40;;;0.70;;
11008;SDS011;5557;51.670;7.788;2022-10-16T15:51:16;1.90;;;0.50;;
11008;SDS011;5557;51.670;7.788;2022-10-16T15:53:44;6.83;;;0.77;;
11008;SDS011;5557;51.670;7.788;2022-10-16T15:56:13;1.30;;;0.60;;
11008;SDS011;5557;51.670;7.788;2022-10-16T15:58:40;1.47;;;0.63;;
11008;SDS011;5557;51.670;7.788;2022-10-16T16:01:07;0.93;;;0.60;;
11008;SDS011;5557;51.670;7.788;2022-10-16T16:03:37;1.90;;;0.70;;
11008;SDS011;5557;51.670;7.788;2022-10-16T16:06:07;4.00;;;0.73;;
11008;SDS011;5557;51.670;7.788;2022-10-16T16:08:36;1.87;;;0.70;;
11008;SDS011;5557;51.670;7.788;2022-10-16T16:11:07;7.43;;;0.70;;
11008;SDS011;5557;51.670;7.788;2022-10-16T16:13:36;1.20;;;0.70;;
11008;SDS011;5557;51.670;7.788;2022-10-16T16:16:05;3.70;;;0.80;;
11008;SDS011;5557;51.670;7.788;2022-10-16T16:18:34;1.00;;;0.80;;
11008;SDS011;5557;51.670;7.788;2022-10-16T16:21:02;3.47;;;1.47;;
11008;SDS011;5557;51.670;7.788;2022-10-16T16:23:29;1.60;;;1.43;;
11008;SDS011;5557;51.670;7.788;2022-10-16T16:26:07;3.73;;;1.40;;
11008;SDS011;5557;51.670;7.788;2022-10-16T16:28:42;2.23;;;1.20;;
11008;SDS011;5557;51.670;7.788;2022-10-16T16:31:10;2.27;;;1.57;;
11008;SDS011;5557;51.670;7.788;2022-10-16T16:33:37;1.70;;;1.60;;
11008;SDS011;5557;51.670;7.788;2022-10-16T16:36:04;2.33;;;1.70;;
11008;SDS011;5557;51.670;7.788;2022-10-16T16:38:39;5.53;;;1.33;;
11008;SDS011;5557;51.670;7.788;2022-10-16T16:41:13;3.00;;;2.00;;
11008;SDS011;5557;51.670;7.788;2022-10-16T16:43:42;4.30;;;2.60;;
11008;SDS011;5557;51.670;7.788;2022-10-16T16:46:10;2.77;;;2.50;;